Belfast, Maine
Current Conditions -  °F | °C
As of 3:15 PM on Thursday 30 Oct 2014 (Local Time) from KRKD Reporting Station
Broken Clouds Broken Clouds  
Wind Chill: 55°   Ceiling: 4000
Heat Index: 55°   Visibility: 10mi
Dew Point: 39°   Wind: 13mph
Humidity: 54%   Direction: 270°W
Pressure: 29.87"   Gusts: 17mph
Location:  44.42°N, 69.02°W
Report Text: KRKD 301915Z AUTO 27011G15KT 10SM BKN040 BKN048 13/04 A2987 RMK AO1
Loading
Personal Weather Stations






























Interactive Weather Map
Tropical Storm Tracking
New forecast layout! Learn more

10-Day Weather Forecast

Advertisements
Track Severe Weather on mobile